sensor_id;sensor_type;location;lat;lon;timestamp;temperature;humidity
23347;DHT22;36852;45.466;11.066;2023-03-01T00:00:22;10.40;67.20
23347;DHT22;36852;45.466;11.066;2023-03-01T00:02:51;10.40;67.00
23347;DHT22;36852;45.466;11.066;2023-03-01T00:05:22;10.40;66.70
23347;DHT22;36852;45.466;11.066;2023-03-01T00:07:52;10.40;66.50
23347;DHT22;36852;45.466;11.066;2023-03-01T00:15:43;10.30;67.20
23347;DHT22;36852;45.466;11.066;2023-03-01T00:18:12;10.20;68.00
23347;DHT22;36852;45.466;11.066;2023-03-01T00:20:41;10.20;68.60
23347;DHT22;36852;45.466;11.066;2023-03-01T00:23:09;10.20;69.30
23347;DHT22;36852;45.466;11.066;2023-03-01T00:25:41;10.20;69.50
23347;DHT22;36852;45.466;11.066;2023-03-01T00:28:09;10.20;69.70
23347;DHT22;36852;45.466;11.066;2023-03-01T00:30:38;10.10;69.30
23347;DHT22;36852;45.466;11.066;2023-03-01T00:33:07;10.10;69.30
23347;DHT22;36852;45.466;11.066;2023-03-01T00:35:35;10.00;69.40
23347;DHT22;36852;45.466;11.066;2023-03-01T00:38:03;10.00;69.90
23347;DHT22;36852;45.466;11.066;2023-03-01T00:40:33;9.90;70.10
23347;DHT22;36852;45.466;11.066;2023-03-01T00:43:02;9.90;70.10
23347;DHT22;36852;45.466;11.066;2023-03-01T00:45:35;9.80;70.50
23347;DHT22;36852;45.466;11.066;2023-03-01T00:48:04;9.70;70.40
23347;DHT22;36852;45.466;11.066;2023-03-01T00:50:33;9.70;71.00
23347;DHT22;36852;45.466;11.066;2023-03-01T00:53:02;9.60;71.10
23347;DHT22;36852;45.466;11.066;2023-03-01T00:55:30;9.60;71.20
23347;DHT22;36852;45.466;11.066;2023-03-01T00:57:58;9.50;71.50
23347;DHT22;36852;45.466;11.066;2023-03-01T01:00:26;9.50;72.10
23347;DHT22;36852;45.466;11.066;2023-03-01T01:02:56;9.50;72.40
23347;DHT22;36852;45.466;11.066;2023-03-01T01:05:34;9.40;72.60
23347;DHT22;36852;45.466;11.066;2023-03-01T01:08:21;9.40;73.70
23347;DHT22;36852;45.466;11.066;2023-03-01T01:10:51;9.30;73.40
23347;DHT22;36852;45.466;11.066;2023-03-01T01:13:19;9.20;73.10
23347;DHT22;36852;45.466;11.066;2023-03-01T01:15:48;9.20;73.80
23347;DHT22;36852;45.466;11.066;2023-03-01T01:18:16;9.10;74.00
23347;DHT22;36852;45.466;11.066;2023-03-01T01:20:44;9.10;74.40
23347;DHT22;36852;45.466;11.066;2023-03-01T01:23:15;9.00;74.50
23347;DHT22;36852;45.466;11.066;2023-03-01T01:25:43;9.00;74.30
23347;DHT22;36852;45.466;11.066;2023-03-01T01:28:11;9.00;74.50
23347;DHT22;36852;45.466;11.066;2023-03-01T01:30:42;8.90;74.50
23347;DHT22;36852;45.466;11.066;2023-03-01T01:33:10;8.90;74.70
23347;DHT22;36852;45.466;11.066;2023-03-01T01:35:39;8.80;74.60
23347;DHT22;36852;45.466;11.066;2023-03-01T01:38:07;8.80;75.20
23347;DHT22;36852;45.466;11.066;2023-03-01T01:40:34;8.80;75.20
23347;DHT22;36852;45.466;11.066;2023-03-01T01:43:02;8.70;75.20
23347;DHT22;36852;45.466;11.066;2023-03-01T01:45:33;8.70;75.40
23347;DHT22;36852;45.466;11.066;2023-03-01T01:48:03;8.60;75.70
23347;DHT22;36852;45.466;11.066;2023-03-01T01:50:33;8.60;75.80
23347;DHT22;36852;45.466;11.066;2023-03-01T01:53:17;8.40;75.80
23347;DHT22;36852;45.466;11.066;2023-03-01T01:55:49;8.40;76.30
23347;DHT22;36852;45.466;11.066;2023-03-01T01:58:19;8.30;76.60
23347;DHT22;36852;45.466;11.066;2023-03-01T02:00:48;8.30;77.00
23347;DHT22;36852;45.466;11.066;2023-03-01T02:03:20;8.20;77.10
23347;DHT22;36852;45.466;11.066;2023-03-01T02:08:38;8.20;77.80
23347;DHT22;36852;45.466;11.066;2023-03-01T02:11:09;8.10;78.20
23347;DHT22;36852;45.466;11.066;2023-03-01T02:13:38;8.00;79.10
23347;DHT22;36852;45.466;11.066;2023-03-01T02:16:08;8.10;79.70
23347;DHT22;36852;45.466;11.066;2023-03-01T02:18:37;8.10;80.30
23347;DHT22;36852;45.466;11.066;2023-03-01T02:23:41;8.10;79.40
23347;DHT22;36852;45.466;11.066;2023-03-01T02:26:12;8.00;79.30
23347;DHT22;36852;45.466;11.066;2023-03-01T02:28:42;8.00;79.30
23347;DHT22;36852;45.466;11.066;2023-03-01T02:31:14;8.00;79.90
23347;DHT22;36852;45.466;11.066;2023-03-01T02:34:02;7.90;80.00
23347;DHT22;36852;45.466;11.066;2023-03-01T02:36:38;7.80;80.50
23347;DHT22;36852;45.466;11.066;2023-03-01T02:39:08;7.80;80.90
23347;DHT22;36852;45.466;11.066;2023-03-01T02:41:41;7.80;81.00
23347;DHT22;36852;45.466;11.066;2023-03-01T02:44:10;7.80;80.70
23347;DHT22;36852;45.466;11.066;2023-03-01T02:46:44;7.90;80.90
23347;DHT22;36852;45.466;11.066;2023-03-01T02:49:18;7.90;80.90
23347;DHT22;36852;45.466;11.066;2023-03-01T03:00:09;7.70;81.90
23347;DHT22;36852;45.466;11.066;2023-03-01T03:02:37;7.70;82.60
23347;DHT22;36852;45.466;11.066;2023-03-01T03:05:13;7.70;82.70
23347;DHT22;36852;45.466;11.066;2023-03-01T03:07:42;7.80;82.80
23347;DHT22;36852;45.466;11.066;2023-03-01T03:10:14;7.80;83.30
23347;DHT22;36852;45.466;11.066;2023-03-01T03:12:42;7.80;82.40
23347;DHT22;36852;45.466;11.066;2023-03-01T03:15:11;7.90;83.40
23347;DHT22;36852;45.466;11.066;2023-03-01T03:17:41;7.80;83.70
23347;DHT22;36852;45.466;11.066;2023-03-01T03:20:13;7.90;83.70
23347;DHT22;36852;45.466;11.066;2023-03-01T03:22:43;7.90;83.40
23347;DHT22;36852;45.466;11.066;2023-03-01T03:25:10;7.90;83.50
23347;DHT22;36852;45.466;11.066;2023-03-01T03:27:40;7.90;83.70
23347;DHT22;36852;45.466;11.066;2023-03-01T03:30:24;7.90;83.80
23347;DHT22;36852;45.466;11.066;2023-03-01T03:32:53;7.90;83.70
23347;DHT22;36852;45.466;11.066;2023-03-01T03:37:53;8.00;83.90
23347;DHT22;36852;45.466;11.066;2023-03-01T03:40:35;8.00;84.20
23347;DHT22;36852;45.466;11.066;2023-03-01T03:43:07;8.10;84.40
23347;DHT22;36852;45.466;11.066;2023-03-01T03:45:35;8.10;84.30
23347;DHT22;36852;45.466;11.066;2023-03-01T03:48:05;8.10;84.40
23347;DHT22;36852;45.466;11.066;2023-03-01T03:50:34;8.00;84.40
23347;DHT22;36852;45.466;11.066;2023-03-01T03:53:04;8.00;84.10
23347;DHT22;36852;45.466;11.066;2023-03-01T03:55:33;8.00;85.30
23347;DHT22;36852;45.466;11.066;2023-03-01T03:58:02;8.00;85.50
23347;DHT22;36852;45.466;11.066;2023-03-01T04:00:37;8.00;85.40
23347;DHT22;36852;45.466;11.066;2023-03-01T04:03:06;8.00;85.80
23347;DHT22;36852;45.466;11.066;2023-03-01T04:05:35;8.00;86.20
23347;DHT22;36852;45.466;11.066;2023-03-01T04:08:04;8.00;86.80
23347;DHT22;36852;45.466;11.066;2023-03-01T04:10:39;8.00;86.60
23347;DHT22;36852;45.466;11.066;2023-03-01T04:13:12;8.00;87.10
23347;DHT22;36852;45.466;11.066;2023-03-01T04:15:41;8.00;87.10
23347;DHT22;36852;45.466;11.066;2023-03-01T04:18:14;8.00;87.50
23347;DHT22;36852;45.466;11.066;2023-03-01T04:20:43;8.00;87.80
23347;DHT22;36852;45.466;11.066;2023-03-01T04:23:34;8.00;88.00
23347;DHT22;36852;45.466;11.066;2023-03-01T04:26:03;8.00;87.70
23347;DHT22;36852;45.466;11.066;2023-03-01T04:28:39;8.10;87.90
23347;DHT22;36852;45.466;11.066;2023-03-01T04:31:08;8.10;88.30
23347;DHT22;36852;45.466;11.066;2023-03-01T04:33:50;8.10;88.70
23347;DHT22;36852;45.466;11.066;2023-03-01T04:36:23;8.10;88.90
23347;DHT22;36852;45.466;11.066;2023-03-01T04:38:52;8.00;89.70
23347;DHT22;36852;45.466;11.066;2023-03-01T04:41:22;8.00;89.20
23347;DHT22;36852;45.466;11.066;2023-03-01T04:43:54;8.10;89.80
23347;DHT22;36852;45.466;11.066;2023-03-01T04:46:22;8.00;90.00
23347;DHT22;36852;45.466;11.066;2023-03-01T04:48:51;8.10;90.00
23347;DHT22;36852;45.466;11.066;2023-03-01T04:51:19;8.10;90.10
23347;DHT22;36852;45.466;11.066;2023-03-01T04:53:47;8.10;90.20
23347;DHT22;36852;45.466;11.066;2023-03-01T04:56:15;8.10;90.20
23347;DHT22;36852;45.466;11.066;2023-03-01T04:58:47;8.10;90.20
23347;DHT22;36852;45.466;11.066;2023-03-01T05:01:18;8.10;90.40
23347;DHT22;36852;45.466;11.066;2023-03-01T05:03:49;8.20;90.40
23347;DHT22;36852;45.466;11.066;2023-03-01T05:06:19;8.10;90.50
23347;DHT22;36852;45.466;11.066;2023-03-01T05:08:48;8.20;90.70
23347;DHT22;36852;45.466;11.066;2023-03-01T05:11:15;8.20;91.00
23347;DHT22;36852;45.466;11.066;2023-03-01T05:13:44;8.20;91.10
23347;DHT22;36852;45.466;11.066;2023-03-01T05:16:12;8.30;91.10
23347;DHT22;36852;45.466;11.066;2023-03-01T05:18:40;8.30;91.10
23347;DHT22;36852;45.466;11.066;2023-03-01T05:21:11;8.30;91.10
23347;DHT22;36852;45.466;11.066;2023-03-01T05:23:40;8.30;91.20
23347;DHT22;36852;45.466;11.066;2023-03-01T05:26:08;8.30;91.20
23347;DHT22;36852;45.466;11.066;2023-03-01T05:28:38;8.30;91.50
23347;DHT22;36852;45.466;11.066;2023-03-01T05:31:07;8.30;91.70
23347;DHT22;36852;45.466;11.066;2023-03-01T05:33:38;8.30;92.40
23347;DHT22;36852;45.466;11.066;2023-03-01T05:36:06;8.30;92.40
23347;DHT22;36852;45.466;11.066;2023-03-01T05:38:36;8.30;92.70
23347;DHT22;36852;45.466;11.066;2023-03-01T05:41:04;8.30;92.80
23347;DHT22;36852;45.466;11.066;2023-03-01T05:43:32;8.20;93.10
23347;DHT22;36852;45.466;11.066;2023-03-01T05:46:01;8.30;93.20
23347;DHT22;36852;45.466;11.066;2023-03-01T05:48:29;8.30;93.30
23347;DHT22;36852;45.466;11.066;2023-03-01T05:50:59;8.30;93.50
23347;DHT22;36852;45.466;11.066;2023-03-01T05:53:28;8.30;93.30
23347;DHT22;36852;45.466;11.066;2023-03-01T05:55:57;8.20;93.40
23347;DHT22;36852;45.466;11.066;2023-03-01T05:58:25;8.20;93.40
23347;DHT22;36852;45.466;11.066;2023-03-01T06:00:54;8.20;93.30
23347;DHT22;36852;45.466;11.066;2023-03-01T06:03:23;8.20;93.50
23347;DHT22;36852;45.466;11.066;2023-03-01T06:05:56;8.20;93.90
23347;DHT22;36852;45.466;11.066;2023-03-01T06:08:24;8.20;93.80
23347;DHT22;36852;45.466;11.066;2023-03-01T06:10:54;8.20;93.90
23347;DHT22;36852;45.466;11.066;2023-03-01T06:16:05;8.20;94.60
23347;DHT22;36852;45.466;11.066;2023-03-01T06:18:33;8.20;94.60
23347;DHT22;36852;45.466;11.066;2023-03-01T06:21:02;8.20;94.80
23347;DHT22;36852;45.466;11.066;2023-03-01T06:23:31;8.20;95.00
23347;DHT22;36852;45.466;11.066;2023-03-01T06:26:00;8.20;95.10
23347;DHT22;36852;45.466;11.066;2023-03-01T06:28:28;8.20;95.30
23347;DHT22;36852;45.466;11.066;2023-03-01T06:30:56;8.30;95.40
23347;DHT22;36852;45.466;11.066;2023-03-01T06:33:24;8.30;95.50
23347;DHT22;36852;45.466;11.066;2023-03-01T06:35:54;8.30;95.70
23347;DHT22;36852;45.466;11.066;2023-03-01T06:38:24;8.30;95.60
23347;DHT22;36852;45.466;11.066;2023-03-01T06:40:53;8.30;95.40
23347;DHT22;36852;45.466;11.066;2023-03-01T06:43:24;8.40;96.00
23347;DHT22;36852;45.466;11.066;2023-03-01T06:45:52;8.40;95.40
23347;DHT22;36852;45.466;11.066;2023-03-01T06:48:21;8.40;95.30
23347;DHT22;36852;45.466;11.066;2023-03-01T06:50:49;8.50;95.40
23347;DHT22;36852;45.466;11.066;2023-03-01T06:53:18;8.50;95.60
23347;DHT22;36852;45.466;11.066;2023-03-01T06:55:45;8.60;95.50
23347;DHT22;36852;45.466;11.066;2023-03-01T06:58:13;8.60;95.30
23347;DHT22;36852;45.466;11.066;2023-03-01T07:00:41;8.70;95.40
23347;DHT22;36852;45.466;11.066;2023-03-01T07:03:11;8.70;95.30
23347;DHT22;36852;45.466;11.066;2023-03-01T07:05:42;8.80;95.40
23347;DHT22;36852;45.466;11.066;2023-03-01T07:08:10;8.80;95.60
23347;DHT22;36852;45.466;11.066;2023-03-01T07:10:39;8.90;95.70
23347;DHT22;36852;45.466;11.066;2023-03-01T07:13:08;9.00;95.40
23347;DHT22;36852;45.466;11.066;2023-03-01T07:15:36;9.00;95.60
23347;DHT22;36852;45.466;11.066;2023-03-01T07:18:04;9.00;95.60
23347;DHT22;36852;45.466;11.066;2023-03-01T07:20:32;9.10;95.70
23347;DHT22;36852;45.466;11.066;2023-03-01T07:23:01;9.10;96.50
23347;DHT22;36852;45.466;11.066;2023-03-01T07:25:32;9.10;97.10
23347;DHT22;36852;45.466;11.066;2023-03-01T07:28:01;9.20;98.30
23347;DHT22;36852;45.466;11.066;2023-03-01T07:30:30;9.20;98.70
23347;DHT22;36852;45.466;11.066;2023-03-01T07:33:02;9.30;97.60
23347;DHT22;36852;45.466;11.066;2023-03-01T07:35:31;9.20;97.20
23347;DHT22;36852;45.466;11.066;2023-03-01T07:40:51;9.30;98.50
23347;DHT22;36852;45.466;11.066;2023-03-01T07:43:19;9.30;99.30
23347;DHT22;36852;45.466;11.066;2023-03-01T07:45:48;9.30;98.90
23347;DHT22;36852;45.466;11.066;2023-03-01T07:48:16;9.40;97.80
23347;DHT22;36852;45.466;11.066;2023-03-01T07:50:44;9.40;97.60
23347;DHT22;36852;45.466;11.066;2023-03-01T07:53:12;9.50;98.60
23347;DHT22;36852;45.466;11.066;2023-03-01T07:55:40;9.50;97.90
23347;DHT22;36852;45.466;11.066;2023-03-01T07:58:08;9.50;97.40
23347;DHT22;36852;45.466;11.066;2023-03-01T08:00:40;9.60;97.40
23347;DHT22;36852;45.466;11.066;2023-03-01T08:03:08;9.70;97.70
23347;DHT22;36852;45.466;11.066;2023-03-01T08:05:36;9.70;97.30
23347;DHT22;36852;45.466;11.066;2023-03-01T08:08:04;9.70;97.20
23347;DHT22;36852;45.466;11.066;2023-03-01T08:10:57;9.80;97.20
23347;DHT22;36852;45.466;11.066;2023-03-01T08:13:25;9.80;97.00
23347;DHT22;36852;45.466;11.066;2023-03-01T08:15:54;9.90;96.70
23347;DHT22;36852;45.466;11.066;2023-03-01T08:18:22;9.90;94.80
23347;DHT22;36852;45.466;11.066;2023-03-01T08:20:50;9.90;94.30
23347;DHT22;36852;45.466;11.066;2023-03-01T08:23:18;10.00;94.30
23347;DHT22;36852;45.466;11.066;2023-03-01T08:26:07;10.00;94.40
23347;DHT22;36852;45.466;11.066;2023-03-01T08:28:36;10.10;94.40
23347;DHT22;36852;45.466;11.066;2023-03-01T08:31:17;10.10;94.00
23347;DHT22;36852;45.466;11.066;2023-03-01T08:33:42;10.20;94.10
23347;DHT22;36852;45.466;11.066;2023-03-01T08:36:18;10.20;94.50
23347;DHT22;36852;45.466;11.066;2023-03-01T08:38:46;10.30;94.00
23347;DHT22;36852;45.466;11.066;2023-03-01T08:41:14;10.30;93.90
23347;DHT22;36852;45.466;11.066;2023-03-01T08:43:43;10.30;93.80
23347;DHT22;36852;45.466;11.066;2023-03-01T08:46:12;10.30;93.70
23347;DHT22;36852;45.466;11.066;2023-03-01T08:48:40;10.30;93.70
23347;DHT22;36852;45.466;11.066;2023-03-01T08:51:16;10.30;93.70
23347;DHT22;36852;45.466;11.066;2023-03-01T08:53:49;10.30;93.70
23347;DHT22;36852;45.466;11.066;2023-03-01T08:56:18;10.30;93.90
23347;DHT22;36852;45.466;11.066;2023-03-01T09:01:32;10.30;94.60
23347;DHT22;36852;45.466;11.066;2023-03-01T09:04:01;10.30;94.90
23347;DHT22;36852;45.466;11.066;2023-03-01T09:06:32;10.40;95.20
23347;DHT22;36852;45.466;11.066;2023-03-01T09:09:02;10.40;95.30
23347;DHT22;36852;45.466;11.066;2023-03-01T09:11:30;10.40;95.30
23347;DHT22;36852;45.466;11.066;2023-03-01T09:13:59;10.50;95.50
23347;DHT22;36852;45.466;11.066;2023-03-01T09:16:26;10.50;95.60
23347;DHT22;36852;45.466;11.066;2023-03-01T09:18:54;10.60;95.70
23347;DHT22;36852;45.466;11.066;2023-03-01T09:21:23;10.60;95.60
23347;DHT22;36852;45.466;11.066;2023-03-01T09:23:56;10.70;95.40
23347;DHT22;36852;45.466;11.066;2023-03-01T09:26:24;10.70;95.20
23347;DHT22;36852;45.466;11.066;2023-03-01T09:28:54;10.70;94.70
23347;DHT22;36852;45.466;11.066;2023-03-01T09:31:24;10.70;94.50
23347;DHT22;36852;45.466;11.066;2023-03-01T09:33:53;10.80;94.30
23347;DHT22;36852;45.466;11.066;2023-03-01T09:36:24;10.80;93.80
23347;DHT22;36852;45.466;11.066;2023-03-01T09:38:52;10.80;93.60
23347;DHT22;36852;45.466;11.066;2023-03-01T09:41:49;10.80;93.30
23347;DHT22;36852;45.466;11.066;2023-03-01T09:47:05;10.80;93.00
23347;DHT22;36852;45.466;11.066;2023-03-01T09:49:35;10.80;93.00
23347;DHT22;36852;45.466;11.066;2023-03-01T09:52:27;10.80;93.10
23347;DHT22;36852;45.466;11.066;2023-03-01T09:54:55;10.80;92.90
23347;DHT22;36852;45.466;11.066;2023-03-01T10:03:01;11.00;91.60
23347;DHT22;36852;45.466;11.066;2023-03-01T10:10:59;10.80;89.40
23347;DHT22;36852;45.466;11.066;2023-03-01T10:13:46;10.60;90.00
23347;DHT22;36852;45.466;11.066;2023-03-01T10:16:28;10.50;90.40
23347;DHT22;36852;45.466;11.066;2023-03-01T10:18:59;10.40;90.40
23347;DHT22;36852;45.466;11.066;2023-03-01T10:21:28;10.40;90.50
23347;DHT22;36852;45.466;11.066;2023-03-01T10:24:12;10.40;91.00
23347;DHT22;36852;45.466;11.066;2023-03-01T10:26:53;10.50;90.70
23347;DHT22;36852;45.466;11.066;2023-03-01T10:29:45;10.60;90.00
23347;DHT22;36852;45.466;11.066;2023-03-01T10:32:09;10.60;90.30
23347;DHT22;36852;45.466;11.066;2023-03-01T10:34:38;10.70;90.70
23347;DHT22;36852;45.466;11.066;2023-03-01T10:37:15;10.80;90.50
23347;DHT22;36852;45.466;11.066;2023-03-01T10:40:05;10.80;90.70
23347;DHT22;36852;45.466;11.066;2023-03-01T10:42:39;10.90;90.60
23347;DHT22;36852;45.466;11.066;2023-03-01T10:48:18;11.00;87.90
23347;DHT22;36852;45.466;11.066;2023-03-01T10:50:49;11.10;88.40
23347;DHT22;36852;45.466;11.066;2023-03-01T10:56:05;11.20;87.40
23347;DHT22;36852;45.466;11.066;2023-03-01T10:58:30;11.20;86.10
23347;DHT22;36852;45.466;11.066;2023-03-01T11:03:44;11.20;85.10
23347;DHT22;36852;45.466;11.066;2023-03-01T11:08:48;11.30;84.90
23347;DHT22;36852;45.466;11.066;2023-03-01T11:11:32;11.30;85.80
23347;DHT22;36852;45.466;11.066;2023-03-01T11:14:18;11.40;85.80
23347;DHT22;36852;45.466;11.066;2023-03-01T11:17:01;11.50;85.30
23347;DHT22;36852;45.466;11.066;2023-03-01T11:19:30;11.60;84.50
23347;DHT22;36852;45.466;11.066;2023-03-01T11:22:19;11.60;84.30
23347;DHT22;36852;45.466;11.066;2023-03-01T11:24:50;11.70;84.90
23347;DHT22;36852;45.466;11.066;2023-03-01T11:30:39;11.70;84.60
23347;DHT22;36852;45.466;11.066;2023-03-01T11:35:55;11.70;85.00
23347;DHT22;36852;45.466;11.066;2023-03-01T11:38:25;11.70;85.50
23347;DHT22;36852;45.466;11.066;2023-03-01T11:44:07;11.70;86.10
23347;DHT22;36852;45.466;11.066;2023-03-01T11:52:17;11.70;85.40
23347;DHT22;36852;45.466;11.066;2023-03-01T12:03:19;11.80;90.80
23347;DHT22;36852;45.466;11.066;2023-03-01T12:08:45;11.80;88.80
23347;DHT22;36852;45.466;11.066;2023-03-01T12:22:35;11.80;91.90
23347;DHT22;36852;45.466;11.066;2023-03-01T12:51:56;11.70;99.90
23347;DHT22;36852;45.466;11.066;2023-03-01T12:54:33;11.60;99.90
23347;DHT22;36852;45.466;11.066;2023-03-01T12:57:06;11.60;99.90
23347;DHT22;36852;45.466;11.066;2023-03-01T12:59:47;11.60;99.90
23347;DHT22;36852;45.466;11.066;2023-03-01T13:02:15;11.60;99.90
23347;DHT22;36852;45.466;11.066;2023-03-01T13:07:24;11.70;99.90
23347;DHT22;36852;45.466;11.066;2023-03-01T13:10:10;11.70;99.90
23347;DHT22;36852;45.466;11.066;2023-03-01T13:15:27;11.70;99.90
23347;DHT22;36852;45.466;11.066;2023-03-01T13:17:58;11.70;99.90
23347;DHT22;36852;45.466;11.066;2023-03-01T13:26:12;11.70;99.90
23347;DHT22;36852;45.466;11.066;2023-03-01T13:33:54;11.80;98.50
23347;DHT22;36852;45.466;11.066;2023-03-01T13:39:05;11.80;97.80
23347;DHT22;36852;45.466;11.066;2023-03-01T13:41:49;11.80;96.60
23347;DHT22;36852;45.466;11.066;2023-03-01T13:44:30;11.80;95.40
23347;DHT22;36852;45.466;11.066;2023-03-01T13:49:52;11.80;95.30
23347;DHT22;36852;45.466;11.066;2023-03-01T13:54:55;11.80;94.80
23347;DHT22;36852;45.466;11.066;2023-03-01T13:57:26;11.80;94.70
23347;DHT22;36852;45.466;11.066;2023-03-01T13:59:55;11.90;94.70
23347;DHT22;36852;45.466;11.066;2023-03-01T14:02:23;11.90;94.50
23347;DHT22;36852;45.466;11.066;2023-03-01T14:04:58;11.90;94.60
23347;DHT22;36852;45.466;11.066;2023-03-01T14:07:28;11.80;95.10
23347;DHT22;36852;45.466;11.066;2023-03-01T14:10:05;11.80;95.90
23347;DHT22;36852;45.466;11.066;2023-03-01T14:15:19;11.80;96.30
23347;DHT22;36852;45.466;11.066;2023-03-01T14:20:39;11.80;97.60
23347;DHT22;36852;45.466;11.066;2023-03-01T14:23:17;11.80;97.80
23347;DHT22;36852;45.466;11.066;2023-03-01T14:25:54;11.80;98.40
23347;DHT22;36852;45.466;11.066;2023-03-01T14:28:28;11.70;99.20
23347;DHT22;36852;45.466;11.066;2023-03-01T14:30:58;11.70;99.90
23347;DHT22;36852;45.466;11.066;2023-03-01T14:33:33;11.60;99.90
23347;DHT22;36852;45.466;11.066;2023-03-01T14:36:11;11.60;99.90
23347;DHT22;36852;45.466;11.066;2023-03-01T14:38:42;11.50;99.90
23347;DHT22;36852;45.466;11.066;2023-03-01T14:41:15;11.40;99.90
23347;DHT22;36852;45.466;11.066;2023-03-01T14:43:51;11.40;99.90
23347;DHT22;36852;45.466;11.066;2023-03-01T14:46:24;11.30;99.90
23347;DHT22;36852;45.466;11.066;2023-03-01T14:48:58;11.30;99.90
23347;DHT22;36852;45.466;11.066;2023-03-01T14:51:26;11.30;99.90
23347;DHT22;36852;45.466;11.066;2023-03-01T14:53:55;11.20;99.90
23347;DHT22;36852;45.466;11.066;2023-03-01T14:56:23;11.20;99.90
23347;DHT22;36852;45.466;11.066;2023-03-01T14:58:52;11.20;99.90
23347;DHT22;36852;45.466;11.066;2023-03-01T15:01:21;11.20;99.90
23347;DHT22;36852;45.466;11.066;2023-03-01T15:03:49;11.20;99.90
23347;DHT22;36852;45.466;11.066;2023-03-01T15:06:21;11.20;99.90
23347;DHT22;36852;45.466;11.066;2023-03-01T15:08:52;11.10;99.90
23347;DHT22;36852;45.466;11.066;2023-03-01T15:11:26;11.10;99.90
23347;DHT22;36852;45.466;11.066;2023-03-01T15:13:54;11.10;99.90
23347;DHT22;36852;45.466;11.066;2023-03-01T15:16:32;11.10;99.90
23347;DHT22;36852;45.466;11.066;2023-03-01T15:19:04;11.10;99.90
23347;DHT22;36852;45.466;11.066;2023-03-01T15:29:28;11.00;99.90
23347;DHT22;36852;45.466;11.066;2023-03-01T15:32:06;11.00;99.90
23347;DHT22;36852;45.466;11.066;2023-03-01T15:34:37;11.00;99.90
23347;DHT22;36852;45.466;11.066;2023-03-01T15:37:37;11.00;99.90
23347;DHT22;36852;45.466;11.066;2023-03-01T15:40:23;11.00;99.90
23347;DHT22;36852;45.466;11.066;2023-03-01T15:42:53;11.00;99.90
23347;DHT22;36852;45.466;11.066;2023-03-01T15:45:24;11.00;99.90
23347;DHT22;36852;45.466;11.066;2023-03-01T15:48:14;10.90;99.90
23347;DHT22;36852;45.466;11.066;2023-03-01T15:50:37;10.90;99.90
23347;DHT22;36852;45.466;11.066;2023-03-01T15:53:10;10.90;99.90
23347;DHT22;36852;45.466;11.066;2023-03-01T15:55:38;10.90;99.90
23347;DHT22;36852;45.466;11.066;2023-03-01T15:58:13;10.80;99.90
23347;DHT22;36852;45.466;11.066;2023-03-01T16:00:42;10.70;99.90
23347;DHT22;36852;45.466;11.066;2023-03-01T16:03:12;10.70;99.90
23347;DHT22;36852;45.466;11.066;2023-03-01T16:05:40;10.70;99.90
23347;DHT22;36852;45.466;11.066;2023-03-01T16:08:09;10.70;99.90
23347;DHT22;36852;45.466;11.066;2023-03-01T16:10:40;10.70;99.90
23347;DHT22;36852;45.466;11.066;2023-03-01T16:13:12;10.60;99.90
23347;DHT22;36852;45.466;11.066;2023-03-01T16:15:40;10.60;99.90
23347;DHT22;36852;45.466;11.066;2023-03-01T16:18:08;10.60;99.90
23347;DHT22;36852;45.466;11.066;2023-03-01T16:20:38;10.50;99.90
23347;DHT22;36852;45.466;11.066;2023-03-01T16:23:07;10.50;99.90
23347;DHT22;36852;45.466;11.066;2023-03-01T16:25:36;10.50;99.90
23347;DHT22;36852;45.466;11.066;2023-03-01T16:28:05;10.50;99.90
23347;DHT22;36852;45.466;11.066;2023-03-01T16:30:36;10.50;99.90
23347;DHT22;36852;45.466;11.066;2023-03-01T16:33:05;10.40;99.90
23347;DHT22;36852;45.466;11.066;2023-03-01T16:35:39;10.40;99.90
23347;DHT22;36852;45.466;11.066;2023-03-01T16:38:07;10.40;99.90
23347;DHT22;36852;45.466;11.066;2023-03-01T16:40:35;10.40;99.90
23347;DHT22;36852;45.466;11.066;2023-03-01T16:43:03;10.30;99.90
23347;DHT22;36852;45.466;11.066;2023-03-01T16:45:34;10.30;99.90
23347;DHT22;36852;45.466;11.066;2023-03-01T16:48:03;10.20;99.90
23347;DHT22;36852;45.466;11.066;2023-03-01T16:50:33;10.30;99.90
23347;DHT22;36852;45.466;11.066;2023-03-01T16:53:04;10.20;99.90
23347;DHT22;36852;45.466;11.066;2023-03-01T16:55:33;10.20;99.90
23347;DHT22;36852;45.466;11.066;2023-03-01T16:58:01;10.20;99.90
23347;DHT22;36852;45.466;11.066;2023-03-01T17:00:30;10.20;99.90
23347;DHT22;36852;45.466;11.066;2023-03-01T17:02:58;10.20;99.90
23347;DHT22;36852;45.466;11.066;2023-03-01T17:05:26;10.20;99.90
23347;DHT22;36852;45.466;11.066;2023-03-01T17:07:54;10.20;99.90
23347;DHT22;36852;45.466;11.066;2023-03-01T17:10:23;10.20;99.90
23347;DHT22;36852;45.466;11.066;2023-03-01T17:12:52;10.20;99.90
23347;DHT22;36852;45.466;11.066;2023-03-01T17:15:21;10.20;99.90
23347;DHT22;36852;45.466;11.066;2023-03-01T17:17:48;10.20;99.90
23347;DHT22;36852;45.466;11.066;2023-03-01T17:20:18;10.20;99.90
23347;DHT22;36852;45.466;11.066;2023-03-01T17:22:49;10.20;99.90
23347;DHT22;36852;45.466;11.066;2023-03-01T17:25:19;10.20;99.90
23347;DHT22;36852;45.466;11.066;2023-03-01T17:27:47;10.20;99.90
23347;DHT22;36852;45.466;11.066;2023-03-01T17:30:16;10.20;99.90
23347;DHT22;36852;45.466;11.066;2023-03-01T17:32:44;10.20;99.90
23347;DHT22;36852;45.466;11.066;2023-03-01T17:35:12;10.20;99.90
23347;DHT22;36852;45.466;11.066;2023-03-01T17:37:41;10.20;99.90
23347;DHT22;36852;45.466;11.066;2023-03-01T17:40:11;10.10;99.90
23347;DHT22;36852;45.466;11.066;2023-03-01T17:42:39;10.10;99.90
23347;DHT22;36852;45.466;11.066;2023-03-01T17:45:08;10.10;99.90
23347;DHT22;36852;45.466;11.066;2023-03-01T17:47:41;10.00;99.90
23347;DHT22;36852;45.466;11.066;2023-03-01T17:50:06;10.00;99.90
23347;DHT22;36852;45.466;11.066;2023-03-01T17:52:35;10.00;99.90
23347;DHT22;36852;45.466;11.066;2023-03-01T17:55:23;10.00;99.90
23347;DHT22;36852;45.466;11.066;2023-03-01T17:57:50;10.00;99.90
23347;DHT22;36852;45.466;11.066;2023-03-01T18:00:19;10.00;99.90
23347;DHT22;36852;45.466;11.066;2023-03-01T18:02:48;9.90;99.90
23347;DHT22;36852;45.466;11.066;2023-03-01T18:05:17;9.90;99.90
23347;DHT22;36852;45.466;11.066;2023-03-01T18:07:45;9.90;99.90
23347;DHT22;36852;45.466;11.066;2023-03-01T18:10:13;9.90;99.90
23347;DHT22;36852;45.466;11.066;2023-03-01T18:12:41;9.80;99.90
23347;DHT22;36852;45.466;11.066;2023-03-01T18:15:10;9.80;99.90
23347;DHT22;36852;45.466;11.066;2023-03-01T18:17:38;9.80;99.90
23347;DHT22;36852;45.466;11.066;2023-03-01T18:20:06;9.80;99.90
23347;DHT22;36852;45.466;11.066;2023-03-01T18:22:35;9.80;99.90